Time;durP1;ratioP1;P1;durP2;ratioP2;P2;SDS_P1;SDS_P2;PMS_P1;PMS_P2;Temp;Humidity;BMP_temperature;BMP_pressure;BME280_temperature;BME280_humidity;BME280_pressure;Samples;Min_cycle;Max_cycle;Signal;HPM_P1;HPM_P2
2023/08/20 00:00:57;;;;;;;5.55;3.55;;;16.50;99.90;;;;;;5026941;28;20039;-82
2023/08/20 00:03:23;;;;;;;7.68;4.25;;;16.40;99.90;;;;;;5042779;28;20040;-82
2023/08/20 00:05:49;;;;;;;8.95;4.50;;;16.30;99.90;;;;;;5040936;28;20461;-82
2023/08/20 00:08:14;;;;;;;8.98;4.30;;;16.30;99.90;;;;;;5029806;28;20044;-82
2023/08/20 00:10:40;;;;;;;5.45;4.07;;;16.30;99.90;;;;;;5044525;28;20136;-82
2023/08/20 00:13:06;;;;;;;6.30;4.50;;;16.20;99.90;;;;;;5044938;28;20044;-83
2023/08/20 00:15:32;;;;;;;9.02;4.22;;;16.20;99.90;;;;;;5015020;28;20473;-83
2023/08/20 00:17:58;;;;;;;9.40;4.95;;;16.20;99.90;;;;;;5063161;28;20094;-82
2023/08/20 00:20:24;;;;;;;8.52;5.15;;;16.20;99.90;;;;;;5046010;28;20124;-82
2023/08/20 00:22:50;;;;;;;13.43;5.38;;;16.20;99.90;;;;;;5061710;28;20055;-81
2023/08/20 00:25:17;;;;;;;8.25;5.03;;;16.20;99.90;;;;;;5030237;28;20123;-82
2023/08/20 00:27:43;;;;;;;11.23;4.82;;;16.20;99.90;;;;;;5053533;28;20269;-81
2023/08/20 00:30:10;;;;;;;8.20;3.95;;;16.30;99.90;;;;;;5046061;28;20041;-81
2023/08/20 00:32:36;;;;;;;6.35;4.32;;;16.20;99.90;;;;;;5038570;28;20040;-81
2023/08/20 00:35:03;;;;;;;8.98;4.15;;;16.10;99.90;;;;;;5059375;28;20033;-81
2023/08/20 00:37:30;;;;;;;8.57;4.50;;;16.20;99.90;;;;;;5028467;28;20123;-81
2023/08/20 00:39:57;;;;;;;7.90;3.90;;;16.20;99.90;;;;;;5049340;28;20033;-81
2023/08/20 00:42:25;;;;;;;6.68;3.47;;;16.10;99.90;;;;;;5055482;28;20060;-82
2023/08/20 00:44:51;;;;;;;8.27;4.53;;;16.10;99.90;;;;;;5039307;28;20177;-82
2023/08/20 00:47:18;;;;;;;9.45;4.90;;;16.20;99.90;;;;;;5052580;28;20039;-81
2023/08/20 00:49:45;;;;;;;7.55;4.35;;;16.10;99.90;;;;;;5063665;28;20086;-81
2023/08/20 00:52:12;;;;;;;8.45;4.63;;;16.10;99.90;;;;;;5041961;28;20510;-81
2023/08/20 00:54:40;;;;;;;8.30;4.45;;;16.20;99.90;;;;;;5043389;28;20720;-82
2023/08/20 00:57:08;;;;;;;9.02;4.10;;;16.20;99.90;;;;;;5041660;28;20119;-82
2023/08/20 00:59:34;;;;;;;7.18;3.78;;;16.10;99.90;;;;;;5028316;28;20067;-81
2023/08/20 01:02:00;;;;;;;5.28;2.45;;;16.10;99.90;;;;;;5043743;28;20105;-81
2023/08/20 01:04:27;;;;;;;4.25;2.40;;;16.00;99.90;;;;;;5042587;28;20045;-82
2023/08/20 01:07:01;;;;;;;4.40;3.13;;;16.00;99.90;;;;;;5026733;28;20075;-82
2023/08/20 01:09:49;;;;;;;5.35;3.40;;;16.00;99.90;;;;;;5061520;28;20102;-81
2023/08/20 01:12:17;;;;;;;7.38;4.00;;;16.00;99.90;;;;;;5056831;28;20063;-81
2023/08/20 01:14:42;;;;;;;5.25;3.50;;;16.00;99.90;;;;;;5031272;28;20106;-82
2023/08/20 01:17:08;;;;;;;5.97;3.45;;;16.00;99.90;;;;;;5031128;28;20144;-82
2023/08/20 01:19:34;;;;;;;8.40;4.45;;;16.00;99.90;;;;;;5007635;28;20192;-82
2023/08/20 01:22:28;;;;;;;8.15;5.10;;;16.00;99.90;;;;;;5052765;28;20040;-82
2023/08/20 01:25:26;;;;;;;10.32;4.70;;;16.00;99.90;;;;;;5064570;28;20048;-82
2023/08/20 01:28:16;;;;;;;9.57;4.25;;;15.90;99.90;;;;;;5047728;28;20365;-82
2023/08/20 01:30:44;;;;;;;5.65;3.78;;;15.90;99.90;;;;;;5051557;28;20044;-81
2023/08/20 01:33:12;;;;;;;9.25;4.57;;;15.80;99.90;;;;;;5060707;28;20037;-81
2023/08/20 01:35:38;;;;;;;6.25;4.00;;;15.80;99.90;;;;;;5052175;28;20105;-82
2023/08/20 01:38:04;;;;;;;11.30;4.65;;;15.80;99.90;;;;;;5041099;28;20427;-82
2023/08/20 01:40:30;;;;;;;7.07;4.20;;;15.80;99.90;;;;;;5022787;28;20036;-82
2023/08/20 01:42:57;;;;;;;6.45;4.38;;;15.80;99.90;;;;;;5037812;28;20102;-82
2023/08/20 01:45:23;;;;;;;7.00;3.55;;;15.80;99.90;;;;;;5054818;28;20072;-82
2023/08/20 01:47:48;;;;;;;8.40;4.05;;;15.70;99.90;;;;;;5039070;28;20474;-82
2023/08/20 01:50:14;;;;;;;8.02;5.00;;;15.70;99.90;;;;;;5021736;28;20076;-82
2023/08/20 01:52:40;;;;;;;8.25;4.22;;;15.70;99.90;;;;;;5045277;28;20508;-82
2023/08/20 01:55:06;;;;;;;6.57;4.22;;;15.60;99.90;;;;;;5027438;28;20040;-82
2023/08/20 01:57:32;;;;;;;8.05;3.78;;;15.70;99.90;;;;;;5016086;28;20037;-81
2023/08/20 01:59:58;;;;;;;7.18;4.38;;;15.60;99.90;;;;;;5040821;28;20040;-81
2023/08/20 02:02:24;;;;;;;5.22;3.25;;;15.60;99.90;;;;;;5022243;28;20032;-82
2023/08/20 02:04:50;;;;;;;8.85;4.03;;;15.70;99.90;;;;;;5060275;28;20528;-81
2023/08/20 02:07:16;;;;;;;7.70;4.40;;;15.70;99.90;;;;;;5039927;28;20082;-81
2023/08/20 02:09:41;;;;;;;7.32;4.78;;;15.70;99.90;;;;;;5061737;28;20083;-82
2023/08/20 02:12:07;;;;;;;9.68;5.32;;;15.60;99.90;;;;;;5020017;28;20049;-82
2023/08/20 02:14:34;;;;;;;6.40;4.50;;;15.60;99.90;;;;;;5033594;28;20060;-82
2023/08/20 02:17:03;;;;;;;6.70;4.93;;;15.60;99.90;;;;;;5053740;28;20536;-82
2023/08/20 02:19:29;;;;;;;6.97;4.88;;;15.60;99.90;;;;;;5042736;28;20048;-82
2023/08/20 02:21:55;;;;;;;10.52;5.18;;;15.60;99.90;;;;;;5027895;28;20392;-82
2023/08/20 02:24:21;;;;;;;6.72;4.63;;;15.60;99.90;;;;;;5019445;28;20044;-82
2023/08/20 02:26:46;;;;;;;8.95;4.57;;;15.60;99.90;;;;;;5012957;28;20476;-82
2023/08/20 02:29:12;;;;;;;8.70;4.63;;;15.50;99.90;;;;;;5025311;28;20391;-82
2023/08/20 02:31:38;;;;;;;7.25;5.07;;;15.50;99.90;;;;;;5056023;28;20501;-82
2023/08/20 02:34:04;;;;;;;7.70;4.82;;;15.50;99.90;;;;;;5058997;28;20106;-82
2023/08/20 02:36:29;;;;;;;5.95;4.68;;;15.50;99.90;;;;;;5043479;28;20095;-82
2023/08/20 02:38:55;;;;;;;9.70;4.85;;;15.40;99.90;;;;;;5061661;28;20039;-82
2023/08/20 02:41:21;;;;;;;9.45;5.70;;;15.40;99.90;;;;;;5041512;28;20037;-81
2023/08/20 02:43:47;;;;;;;6.95;5.03;;;15.40;99.90;;;;;;5040691;28;20119;-82
2023/08/20 02:46:13;;;;;;;7.72;4.88;;;15.40;99.90;;;;;;5043126;28;20043;-82
2023/08/20 02:48:39;;;;;;;7.53;5.32;;;15.40;99.90;;;;;;5027341;28;20114;-82
2023/08/20 02:51:05;;;;;;;6.93;4.60;;;15.40;99.90;;;;;;5024412;28;20483;-82
2023/08/20 02:53:30;;;;;;;7.93;5.40;;;15.30;99.90;;;;;;5028279;28;20049;-82
2023/08/20 02:55:56;;;;;;;8.18;5.03;;;15.30;99.90;;;;;;5017028;28;20047;-82
2023/08/20 02:58:22;;;;;;;8.52;5.32;;;15.30;99.90;;;;;;5038806;28;20044;-82
2023/08/20 03:00:48;;;;;;;10.95;5.85;;;15.30;99.90;;;;;;5005449;28;20068;-82
2023/08/20 03:03:14;;;;;;;8.05;6.32;;;15.40;99.90;;;;;;5036831;28;20048;-82
2023/08/20 03:05:40;;;;;;;8.73;5.50;;;15.40;99.90;;;;;;5036268;28;20049;-81
2023/08/20 03:08:06;;;;;;;7.07;5.70;;;15.40;99.90;;;;;;5017386;28;20048;-81
2023/08/20 03:10:32;;;;;;;9.18;6.32;;;15.40;99.90;;;;;;5032727;28;20162;-81
2023/08/20 03:13:02;;;;;;;8.57;6.40;;;15.30;99.90;;;;;;5057889;28;20108;-82
2023/08/20 03:15:28;;;;;;;10.27;6.07;;;15.30;99.90;;;;;;5033090;28;20036;-81
2023/08/20 03:17:54;;;;;;;7.60;6.20;;;15.30;99.90;;;;;;5028689;28;20052;-81
2023/08/20 03:20:20;;;;;;;7.13;5.78;;;15.20;99.90;;;;;;5033192;28;20473;-82
2023/08/20 03:22:45;;;;;;;8.18;6.35;;;15.20;99.90;;;;;;5036670;28;20033;-82
2023/08/20 03:25:11;;;;;;;6.05;5.25;;;15.20;99.90;;;;;;5041063;28;20090;-81
2023/08/20 03:27:37;;;;;;;7.30;5.45;;;15.20;99.90;;;;;;5022101;28;20412;-82
2023/08/20 03:30:04;;;;;;;7.50;6.75;;;15.20;99.90;;;;;;5022488;28;20041;-82
2023/08/20 03:32:30;;;;;;;7.28;6.43;;;15.20;99.90;;;;;;5014518;28;20500;-82
2023/08/20 03:34:55;;;;;;;9.32;6.88;;;15.20;99.90;;;;;;5050809;28;20388;-82
2023/08/20 03:37:22;;;;;;;9.52;8.27;;;15.20;99.90;;;;;;5051783;28;20040;-82
2023/08/20 03:39:48;;;;;;;9.48;7.80;;;15.10;99.90;;;;;;5032697;28;20103;-81
2023/08/20 03:42:14;;;;;;;10.75;8.30;;;15.10;99.90;;;;;;5033121;28;20491;-81
2023/08/20 03:44:39;;;;;;;9.52;7.45;;;15.10;99.90;;;;;;5034607;28;20040;-82
2023/08/20 03:47:05;;;;;;;11.93;9.15;;;15.10;99.90;;;;;;5025988;28;20045;-82
2023/08/20 03:49:31;;;;;;;12.65;7.72;;;15.10;99.90;;;;;;5029675;28;20577;-81
2023/08/20 03:51:57;;;;;;;10.57;6.97;;;15.10;99.90;;;;;;5044040;28;20079;-82
2023/08/20 03:54:22;;;;;;;9.98;7.03;;;15.10;99.90;;;;;;5016873;28;21256;-81
2023/08/20 03:56:48;;;;;;;9.57;7.78;;;15.10;99.90;;;;;;5016558;28;20456;-82
2023/08/20 03:59:14;;;;;;;11.23;7.57;;;15.00;99.90;;;;;;5018471;28;20037;-82
2023/08/20 04:01:39;;;;;;;10.95;8.20;;;15.00;99.90;;;;;;5038685;28;20036;-81
2023/08/20 04:04:05;;;;;;;12.10;7.95;;;15.00;99.90;;;;;;5026534;28;20044;-82
2023/08/20 04:06:31;;;;;;;14.23;8.48;;;15.00;99.90;;;;;;5028932;28;20041;-82
2023/08/20 04:08:56;;;;;;;7.85;6.95;;;15.10;99.90;;;;;;5032729;28;20516;-81
2023/08/20 04:11:22;;;;;;;13.35;8.65;;;15.10;99.90;;;;;;5029446;28;20047;-81
2023/08/20 04:13:48;;;;;;;9.38;6.95;;;15.00;99.90;;;;;;5049939;28;20045;-81
2023/08/20 04:16:15;;;;;;;8.73;7.63;;;15.00;99.90;;;;;;5016230;28;20124;-82
2023/08/20 04:18:40;;;;;;;13.60;9.30;;;15.00;99.90;;;;;;5063580;28;20041;-81
2023/08/20 04:21:09;;;;;;;10.57;8.57;;;15.10;99.90;;;;;;5019139;28;20113;-82
2023/08/20 04:23:35;;;;;;;12.93;9.68;;;15.10;99.90;;;;;;5032482;28;20488;-81
2023/08/20 04:26:01;;;;;;;10.88;8.27;;;15.10;99.90;;;;;;5024507;28;20116;-81
2023/08/20 04:28:26;;;;;;;10.27;8.07;;;15.00;99.90;;;;;;5030823;28;20450;-81
2023/08/20 04:30:54;;;;;;;10.93;8.30;;;15.00;99.90;;;;;;5012035;28;20041;-81
2023/08/20 04:33:20;;;;;;;14.25;10.02;;;15.00;99.90;;;;;;5030261;28;20045;-81
2023/08/20 04:35:50;;;;;;;13.32;9.57;;;15.10;99.90;;;;;;5038234;28;20037;-81
2023/08/20 04:38:15;;;;;;;10.25;8.02;;;15.10;99.90;;;;;;5042397;28;20029;-81
2023/08/20 04:40:41;;;;;;;14.80;9.32;;;15.10;99.90;;;;;;5016644;28;20393;-81
2023/08/20 04:43:07;;;;;;;9.52;8.35;;;15.00;99.90;;;;;;5008872;28;20485;-81
2023/08/20 04:45:32;;;;;;;11.05;9.20;;;15.10;99.90;;;;;;5040649;28;20044;-81
2023/08/20 04:47:59;;;;;;;9.63;8.40;;;15.10;99.90;;;;;;5040951;28;20465;-82
2023/08/20 04:50:25;;;;;;;10.73;9.15;;;15.10;99.90;;;;;;5050228;28;20470;-82
2023/08/20 04:52:51;;;;;;;12.35;10.40;;;15.10;99.90;;;;;;5039430;28;20048;-82
2023/08/20 04:55:17;;;;;;;14.70;11.15;;;15.20;99.90;;;;;;5021450;28;20105;-81
2023/08/20 04:57:42;;;;;;;13.13;10.68;;;15.20;99.90;;;;;;5015841;28;20040;-81
2023/08/20 05:00:09;;;;;;;12.55;10.20;;;15.20;99.90;;;;;;5044828;28;20537;-81
2023/08/20 05:02:35;;;;;;;14.65;11.35;;;15.30;99.90;;;;;;5051854;28;20048;-82
2023/08/20 05:05:02;;;;;;;14.13;11.27;;;15.30;99.90;;;;;;5008750;28;20094;-80
2023/08/20 05:07:28;;;;;;;13.32;10.65;;;15.30;99.90;;;;;;5020545;28;20086;-81
2023/08/20 05:09:54;;;;;;;13.00;10.65;;;15.30;99.90;;;;;;5049342;28;20040;-82
2023/08/20 05:12:19;;;;;;;11.98;10.57;;;15.30;99.90;;;;;;5023373;28;20053;-82
2023/08/20 05:14:45;;;;;;;13.60;10.45;;;15.30;99.90;;;;;;5023434;28;20041;-81
2023/08/20 05:17:11;;;;;;;12.90;10.23;;;15.30;99.90;;;;;;5052368;28;20447;-82
2023/08/20 05:19:36;;;;;;;12.55;10.68;;;15.30;99.90;;;;;;5033293;28;20485;-81
2023/08/20 05:22:02;;;;;;;11.50;9.10;;;15.40;99.90;;;;;;5051773;28;20065;-81
2023/08/20 05:24:28;;;;;;;15.90;9.48;;;15.40;99.90;;;;;;5037513;28;20095;-81
2023/08/20 05:27:07;;;;;;;14.80;11.00;;;15.40;99.90;;;;;;5033332;28;20045;-81
2023/08/20 05:29:33;;;;;;;14.15;10.75;;;15.50;99.90;;;;;;5033211;28;20055;-81
2023/08/20 05:31:59;;;;;;;13.82;11.18;;;15.50;99.90;;;;;;5029014;28;20037;-81
2023/08/20 05:34:25;;;;;;;15.85;11.82;;;15.50;99.90;;;;;;5027711;28;20040;-81
2023/08/20 05:36:50;;;;;;;13.13;10.13;;;15.60;99.90;;;;;;5036005;28;20412;-81
2023/08/20 05:39:16;;;;;;;15.52;11.65;;;15.60;99.90;;;;;;5015584;28;20448;-82
2023/08/20 05:41:42;;;;;;;19.27;11.02;;;15.70;99.90;;;;;;5020980;28;20039;-81
2023/08/20 05:44:07;;;;;;;15.90;11.93;;;15.70;99.90;;;;;;5037298;28;20530;-82
2023/08/20 05:46:33;;;;;;;15.45;12.80;;;15.80;99.90;;;;;;5030893;28;20128;-82
2023/08/20 05:48:59;;;;;;;14.20;12.02;;;15.90;99.90;;;;;;5029003;28;20076;-82
2023/08/20 05:51:24;;;;;;;18.38;13.23;;;15.90;99.90;;;;;;5045760;28;20369;-81
2023/08/20 05:53:50;;;;;;;16.88;13.65;;;16.00;99.90;;;;;;5022011;28;20037;-82
2023/08/20 05:56:16;;;;;;;16.70;13.02;;;16.10;99.90;;;;;;5002145;28;20063;-82
2023/08/20 05:58:41;;;;;;;19.95;13.57;;;16.20;99.90;;;;;;5035128;28;20033;-82
2023/08/20 06:01:07;;;;;;;19.75;13.75;;;16.20;99.90;;;;;;5019341;28;20032;-82
2023/08/20 06:03:33;;;;;;;22.05;14.38;;;16.30;99.90;;;;;;5002909;28;20041;-81
2023/08/20 06:05:59;;;;;;;19.85;14.48;;;16.40;99.90;;;;;;5044220;28;20047;-82
2023/08/20 06:08:25;;;;;;;18.58;14.13;;;16.40;99.90;;;;;;5019370;28;20103;-81
2023/08/20 06:10:51;;;;;;;16.70;13.32;;;16.50;99.90;;;;;;5056647;28;20059;-81
2023/08/20 06:13:17;;;;;;;18.85;13.27;;;16.50;99.90;;;;;;5064128;28;20044;-82
2023/08/20 06:15:42;;;;;;;17.02;13.20;;;16.60;99.90;;;;;;5052597;28;20176;-81
2023/08/20 06:18:08;;;;;;;15.15;12.23;;;16.70;99.90;;;;;;5041171;28;20041;-81
2023/08/20 06:20:34;;;;;;;16.35;12.65;;;16.80;99.90;;;;;;5041320;28;20037;-82
2023/08/20 06:22:59;;;;;;;18.80;12.93;;;16.90;99.90;;;;;;5020271;28;20044;-82
2023/08/20 06:25:25;;;;;;;17.23;12.00;;;17.00;99.90;;;;;;5041743;28;20048;-81
2023/08/20 06:27:51;;;;;;;16.85;12.07;;;17.10;99.90;;;;;;5035752;28;20115;-82
2023/08/20 06:30:17;;;;;;;15.38;11.70;;;17.20;99.90;;;;;;5039235;28;21663;-81
2023/08/20 06:32:44;;;;;;;16.75;11.82;;;17.20;99.90;;;;;;5025838;28;20044;-84
2023/08/20 06:35:10;;;;;;;14.63;10.43;;;17.30;99.90;;;;;;5053983;28;20040;-84
2023/08/20 06:37:38;;;;;;;14.38;10.15;;;17.40;99.90;;;;;;5029082;28;20102;-84
2023/08/20 06:40:05;;;;;;;17.30;10.32;;;17.50;99.90;;;;;;5042989;28;20202;-83
2023/08/20 06:42:31;;;;;;;15.48;10.32;;;17.60;99.90;;;;;;5035922;28;20524;-82
2023/08/20 06:44:56;;;;;;;13.95;9.55;;;17.70;99.90;;;;;;5051129;28;20115;-82
2023/08/20 06:47:22;;;;;;;18.08;10.13;;;17.80;99.90;;;;;;5025499;28;20170;-82
2023/08/20 06:49:49;;;;;;;16.35;10.20;;;17.90;99.90;;;;;;5017990;28;20045;-82
2023/08/20 06:52:15;;;;;;;13.23;10.43;;;18.00;99.90;;;;;;5042512;28;20101;-82
2023/08/20 06:54:40;;;;;;;18.85;10.77;;;18.10;99.90;;;;;;5020588;28;20036;-82
2023/08/20 06:57:06;;;;;;;13.98;10.05;;;18.20;99.90;;;;;;5036672;28;20037;-82
2023/08/20 06:59:32;;;;;;;13.98;8.55;;;18.20;99.90;;;;;;5010785;28;20036;-82
2023/08/20 07:01:57;;;;;;;14.30;8.00;;;18.30;99.90;;;;;;5033834;28;20488;-82
2023/08/20 07:04:23;;;;;;;10.10;8.07;;;18.40;99.90;;;;;;5002452;28;20412;-82
2023/08/20 07:06:50;;;;;;;12.93;8.38;;;18.50;99.90;;;;;;5014819;28;20067;-82
2023/08/20 07:09:16;;;;;;;14.20;8.90;;;18.60;99.90;;;;;;5007640;28;20037;-82
2023/08/20 07:11:42;;;;;;;17.98;8.07;;;18.70;99.90;;;;;;5013763;28;20062;-81
2023/08/20 07:14:07;;;;;;;12.35;7.00;;;18.80;99.90;;;;;;5032652;28;20041;-81
2023/08/20 07:16:33;;;;;;;15.27;7.60;;;18.80;99.90;;;;;;5033516;28;20056;-82
2023/08/20 07:18:59;;;;;;;11.73;6.75;;;18.90;99.90;;;;;;5016758;28;20057;-81
2023/08/20 07:21:24;;;;;;;13.48;6.00;;;19.00;99.90;;;;;;5049465;28;20114;-81
2023/08/20 07:23:50;;;;;;;10.00;5.80;;;19.10;99.90;;;;;;5018959;28;20048;-82
2023/08/20 07:26:16;;;;;;;9.70;6.38;;;19.20;99.90;;;;;;5016606;28;20514;-83
2023/08/20 07:28:57;;;;;;;13.98;6.55;;;19.20;99.90;;;;;;5050237;28;20041;-82
2023/08/20 07:31:23;;;;;;;8.25;6.40;;;19.40;99.90;;;;;;4999893;28;20052;-81
2023/08/20 07:33:50;;;;;;;12.55;5.50;;;19.50;99.90;;;;;;5037529;28;20049;-82
2023/08/20 07:36:17;;;;;;;10.55;5.30;;;19.50;99.90;;;;;;5036058;28;20442;-81
2023/08/20 07:38:43;;;;;;;12.00;5.22;;;19.60;99.90;;;;;;5055565;28;20090;-81
2023/08/20 07:41:11;;;;;;;9.25;5.57;;;19.60;99.90;;;;;;5033094;28;20052;-82
2023/08/20 07:43:37;;;;;;;12.23;4.95;;;19.80;99.90;;;;;;5017122;28;20037;-82
2023/08/20 07:46:04;;;;;;;10.20;5.38;;;19.80;99.90;;;;;;5022677;28;20109;-82
2023/08/20 07:48:29;;;;;;;10.93;5.00;;;19.90;99.90;;;;;;5033563;28;20123;-82
2023/08/20 07:50:55;;;;;;;11.40;4.78;;;19.90;99.90;;;;;;5031939;28;20117;-82
2023/08/20 07:53:21;;;;;;;14.73;5.05;;;20.00;99.90;;;;;;5031698;28;20106;-82
2023/08/20 07:55:47;;;;;;;23.83;5.75;;;20.10;99.90;;;;;;5034060;28;20098;-82
2023/08/20 07:58:12;;;;;;;11.98;4.63;;;20.20;99.90;;;;;;5033059;28;20061;-82
2023/08/20 08:00:38;;;;;;;8.90;4.30;;;20.30;99.90;;;;;;5049320;28;20439;-82
2023/08/20 08:03:04;;;;;;;10.30;4.20;;;20.50;99.90;;;;;;5049338;28;20045;-83
2023/08/20 08:05:30;;;;;;;9.45;4.15;;;20.60;99.90;;;;;;5016351;28;20128;-81
2023/08/20 08:07:56;;;;;;;12.73;4.30;;;20.70;99.90;;;;;;5049627;28;20090;-82
2023/08/20 08:10:21;;;;;;;10.52;3.70;;;20.80;99.90;;;;;;5036801;28;20028;-82
2023/08/20 08:12:47;;;;;;;7.97;4.18;;;20.90;99.90;;;;;;5031706;28;20453;-82
2023/08/20 08:15:13;;;;;;;6.88;3.80;;;21.00;99.90;;;;;;5074631;28;20105;-82
2023/08/20 08:17:39;;;;;;;10.13;3.65;;;21.10;99.90;;;;;;5044425;28;20097;-82
2023/08/20 08:20:06;;;;;;;11.60;3.90;;;21.20;99.90;;;;;;5054383;28;20053;-82
2023/08/20 08:22:31;;;;;;;9.15;3.75;;;21.20;99.90;;;;;;5053146;28;20044;-81
2023/08/20 08:24:57;;;;;;;9.05;4.43;;;21.30;99.90;;;;;;5036364;28;20507;-82
2023/08/20 08:27:23;;;;;;;9.43;3.97;;;21.30;99.90;;;;;;5054433;28;20079;-82
2023/08/20 08:29:50;;;;;;;9.43;3.47;;;21.50;99.90;;;;;;5052816;28;20048;-82
2023/08/20 08:32:16;;;;;;;10.00;4.25;;;21.60;99.90;;;;;;5053000;28;20041;-82
2023/08/20 08:34:41;;;;;;;11.45;3.40;;;21.70;99.90;;;;;;5039746;28;20048;-81
2023/08/20 08:37:07;;;;;;;7.55;3.42;;;21.70;99.90;;;;;;5041039;28;20115;-82
2023/08/20 08:39:33;;;;;;;7.05;3.13;;;21.80;99.90;;;;;;5071136;28;20044;-85
2023/08/20 08:42:04;;;;;;;10.38;3.38;;;21.90;99.90;;;;;;5073006;28;20049;-82
2023/08/20 08:44:34;;;;;;;6.72;3.25;;;22.00;99.90;;;;;;5041466;28;20102;-82
2023/08/20 08:47:04;;;;;;;7.60;3.03;;;22.10;99.90;;;;;;5016424;28;20041;-82
2023/08/20 08:49:33;;;;;;;6.03;2.90;;;22.20;99.90;;;;;;5040417;28;20044;-81
2023/08/20 08:52:00;;;;;;;7.50;3.38;;;22.20;99.90;;;;;;5043394;28;20051;-82
2023/08/20 08:54:26;;;;;;;6.70;2.85;;;22.30;99.90;;;;;;5036115;28;20418;-82
2023/08/20 08:56:52;;;;;;;8.65;3.00;;;22.40;99.90;;;;;;5037927;28;20040;-83
2023/08/20 08:59:19;;;;;;;8.30;2.92;;;22.50;99.90;;;;;;5055670;28;20455;-83
2023/08/20 09:01:45;;;;;;;8.38;2.80;;;22.60;99.90;;;;;;5061925;28;20049;-83
2023/08/20 09:04:11;;;;;;;8.80;2.90;;;22.70;99.90;;;;;;5037126;28;20051;-83
2023/08/20 09:06:46;;;;;;;7.03;2.50;;;22.80;99.90;;;;;;5055989;28;20079;-82
2023/08/20 09:09:12;;;;;;;7.63;2.50;;;22.80;99.90;;;;;;5035510;28;20079;-82
2023/08/20 09:11:38;;;;;;;5.20;2.00;;;22.90;99.90;;;;;;5041113;28;20044;-82
2023/08/20 09:14:04;;;;;;;6.82;2.15;;;22.80;99.90;;;;;;5024683;28;20113;-82
2023/08/20 09:16:31;;;;;;;5.43;2.03;;;23.00;99.90;;;;;;5035252;28;20131;-83
2023/08/20 09:19:00;;;;;;;2.75;1.58;;;23.00;99.90;;;;;;5052042;28;20048;-82
2023/08/20 09:21:29;;;;;;;4.05;1.63;;;22.90;99.90;;;;;;5051404;28;20057;-81
2023/08/20 09:24:00;;;;;;;5.63;1.80;;;22.90;99.90;;;;;;5019651;28;20053;-82
2023/08/20 09:26:26;;;;;;;6.45;1.90;;;23.00;99.90;;;;;;5065462;28;20048;-83
2023/08/20 09:28:54;;;;;;;5.18;1.60;;;23.00;99.90;;;;;;5071161;28;20047;-82
2023/08/20 09:31:20;;;;;;;7.50;2.35;;;23.00;99.90;;;;;;5048751;28;20052;-82
2023/08/20 09:33:54;;;;;;;3.28;1.73;;;23.10;99.90;;;;;;5054909;28;20048;-82
2023/08/20 09:36:31;;;;;;;4.78;1.85;;;23.10;99.90;;;;;;5032114;28;20485;-82
2023/08/20 09:38:57;;;;;;;3.83;1.70;;;23.20;99.90;;;;;;5050578;28;20052;-82
2023/08/20 09:41:24;;;;;;;3.97;1.33;;;23.30;99.90;;;;;;5038740;28;20048;-82
2023/08/20 09:43:58;;;;;;;5.13;1.60;;;23.40;99.90;;;;;;5058384;28;20119;-81
2023/08/20 09:46:29;;;;;;;3.55;1.60;;;23.50;99.90;;;;;;5032004;28;20045;-81
2023/08/20 09:48:59;;;;;;;4.75;1.40;;;23.70;99.90;;;;;;5034686;28;20040;-82
2023/08/20 09:51:26;;;;;;;4.13;1.77;;;23.70;99.90;;;;;;5034754;28;20056;-82
2023/08/20 09:54:04;;;;;;;5.55;1.55;;;23.80;99.90;;;;;;5036245;28;20041;-81
2023/08/20 09:56:31;;;;;;;4.97;1.80;;;23.80;99.90;;;;;;5035105;28;20653;-80
2023/08/20 09:58:58;;;;;;;8.32;2.05;;;23.80;99.90;;;;;;5034927;28;20045;-82
2023/08/20 10:01:25;;;;;;;7.40;2.15;;;23.80;99.90;;;;;;5051396;28;20446;-81
2023/08/20 10:03:51;;;;;;;5.07;1.70;;;23.80;99.90;;;;;;5052633;28;20083;-82
2023/08/20 10:06:19;;;;;;;4.20;1.70;;;23.90;99.90;;;;;;5034821;28;20081;-82
2023/08/20 10:08:46;;;;;;;6.35;2.00;;;23.90;99.90;;;;;;5051430;28;20045;-82
2023/08/20 10:11:12;;;;;;;6.35;2.00;;;23.90;99.90;;;;;;5035079;28;20077;-81
2023/08/20 10:13:39;;;;;;;7.03;2.05;;;24.00;99.90;;;;;;5033973;28;20052;-81
2023/08/20 10:16:05;;;;;;;5.32;1.92;;;24.10;99.90;;;;;;5051456;28;20401;-83
2023/08/20 10:18:34;;;;;;;6.80;1.90;;;24.30;99.90;;;;;;5034879;28;20044;-82
2023/08/20 10:21:02;;;;;;;3.95;1.58;;;24.40;99.90;;;;;;5050233;28;20052;-82
2023/08/20 10:23:28;;;;;;;2.65;1.55;;;24.40;99.90;;;;;;5031133;28;20146;-81
2023/08/20 10:25:53;;;;;;;5.55;1.25;;;24.50;99.90;;;;;;5015042;28;20107;-82
2023/08/20 10:28:25;;;;;;;3.08;1.30;;;24.30;99.90;;;;;;5066101;28;20527;-82
2023/08/20 10:31:08;;;;;;;4.40;1.50;;;24.10;99.90;;;;;;5034306;28;20048;-82
2023/08/20 10:33:48;;;;;;;4.45;1.40;;;24.10;99.90;;;;;;5052618;28;20037;-83
2023/08/20 10:36:22;;;;;;;4.75;1.67;;;24.10;99.90;;;;;;5050690;28;20037;-81
2023/08/20 10:38:49;;;;;;;5.05;1.40;;;24.20;99.90;;;;;;5061873;28;20037;-81
2023/08/20 10:41:16;;;;;;;4.88;1.58;;;24.30;99.90;;;;;;5034017;28;20069;-82
2023/08/20 10:43:49;;;;;;;2.35;1.30;;;24.50;99.90;;;;;;5043535;28;20384;-82
2023/08/20 10:46:18;;;;;;;5.65;1.60;;;24.50;99.90;;;;;;5050488;28;20036;-83
2023/08/20 10:48:55;;;;;;;3.20;1.27;;;24.50;99.90;;;;;;5033220;28;20048;-82
2023/08/20 10:51:26;;;;;;;3.63;1.42;;;24.60;99.90;;;;;;5053408;28;20136;-82
2023/08/20 10:54:01;;;;;;;4.18;1.67;;;24.70;99.90;;;;;;5053313;28;20032;-81
2023/08/20 10:56:46;;;;;;;5.10;1.83;;;24.70;99.90;;;;;;5056723;28;20107;-82
2023/08/20 10:59:16;;;;;;;7.30;1.67;;;24.70;99.90;;;;;;5033984;28;20458;-81
2023/08/20 11:01:49;;;;;;;3.60;1.30;;;24.80;99.90;;;;;;5058224;28;20044;-81
2023/08/20 11:04:16;;;;;;;4.05;1.52;;;24.80;99.90;;;;;;5037755;28;20044;-82
2023/08/20 11:06:43;;;;;;;3.60;1.30;;;24.90;99.90;;;;;;5035256;28;20098;-81
2023/08/20 11:09:09;;;;;;;5.50;1.60;;;25.00;99.90;;;;;;4997919;28;20064;-83
2023/08/20 11:11:35;;;;;;;6.72;1.63;;;25.20;99.90;;;;;;5042584;28;20663;-81
2023/08/20 11:14:13;;;;;;;5.10;1.60;;;25.20;99.90;;;;;;5054731;28;20106;-81
2023/08/20 11:16:40;;;;;;;3.70;1.48;;;25.20;99.90;;;;;;5035611;28;20102;-81
2023/08/20 11:19:09;;;;;;;4.63;1.25;;;25.20;99.90;;;;;;5033908;28;20045;-81
2023/08/20 11:21:37;;;;;;;3.78;1.15;;;25.10;99.90;;;;;;5032799;28;20080;-81
2023/08/20 11:24:03;;;;;;;3.13;1.17;;;25.10;99.90;;;;;;5049913;28;20112;-82
2023/08/20 11:26:29;;;;;;;2.40;1.02;;;25.20;99.90;;;;;;5033422;28;20124;-82
2023/08/20 11:28:54;;;;;;;3.90;1.20;;;25.30;99.90;;;;;;5030203;28;20116;-82
2023/08/20 11:31:20;;;;;;;2.75;1.17;;;25.40;99.90;;;;;;5036562;28;20116;-83
2023/08/20 11:33:47;;;;;;;3.05;1.30;;;25.40;99.90;;;;;;5033134;28;20541;-83
2023/08/20 11:36:16;;;;;;;5.25;1.52;;;25.50;99.90;;;;;;5033301;28;20041;-82
2023/08/20 11:38:43;;;;;;;3.67;1.40;;;25.60;99.90;;;;;;5033422;28;20093;-81
2023/08/20 11:41:09;;;;;;;2.75;1.20;;;25.50;99.90;;;;;;5034229;28;20045;-81
2023/08/20 11:43:34;;;;;;;3.15;1.20;;;25.50;99.90;;;;;;5034122;28;20045;-81
2023/08/20 11:46:00;;;;;;;5.22;1.52;;;25.50;99.90;;;;;;5001434;28;20516;-82
2023/08/20 11:48:26;;;;;;;2.90;1.00;;;25.50;99.90;;;;;;5039540;28;20399;-81
2023/08/20 11:50:52;;;;;;;2.70;1.00;;;25.40;99.90;;;;;;5021007;28;20044;-81
2023/08/20 11:53:24;;;;;;;2.13;1.17;;;25.40;99.90;;;;;;5035284;28;20052;-82
2023/08/20 11:55:50;;;;;;;3.50;1.02;;;25.50;99.90;;;;;;5050312;28;20041;-82
2023/08/20 11:58:19;;;;;;;4.18;1.30;;;25.50;99.90;;;;;;5053939;28;20040;-82
2023/08/20 12:00:50;;;;;;;4.05;1.08;;;25.50;99.90;;;;;;5053754;28;20037;-81
2023/08/20 12:03:18;;;;;;;3.70;0.95;;;25.50;99.90;;;;;;5053513;28;20048;-82
2023/08/20 12:05:44;;;;;;;3.25;0.98;;;25.70;99.90;;;;;;5054078;28;20045;-81
2023/08/20 12:08:17;;;;;;;2.33;1.00;;;25.70;99.90;;;;;;5036829;28;20793;-82
2023/08/20 12:10:43;;;;;;;1.38;0.70;;;25.80;99.90;;;;;;5037230;28;20048;-82
2023/08/20 12:13:09;;;;;;;1.73;1.10;;;25.80;99.90;;;;;;5054457;28;20132;-81
2023/08/20 12:15:35;;;;;;;3.00;1.10;;;25.70;99.90;;;;;;5067490;28;20727;-82
2023/08/20 12:18:05;;;;;;;3.55;1.02;;;25.70;99.90;;;;;;5036863;28;20067;-82
2023/08/20 12:20:32;;;;;;;1.88;0.95;;;25.70;99.90;;;;;;5043602;28;20049;-81
2023/08/20 12:23:00;;;;;;;2.78;1.08;;;25.80;99.90;;;;;;5053222;28;20045;-82
2023/08/20 12:25:26;;;;;;;2.40;0.80;;;25.90;99.90;;;;;;5036593;28;20045;-83
2023/08/20 12:27:52;;;;;;;3.75;0.98;;;26.00;99.90;;;;;;5053244;28;20119;-82
2023/08/20 12:30:18;;;;;;;2.03;0.80;;;26.00;99.90;;;;;;5031518;28;20112;-82
2023/08/20 12:32:44;;;;;;;2.53;1.10;;;26.20;99.90;;;;;;5063155;28;20495;-81
2023/08/20 12:35:10;;;;;;;2.88;0.98;;;26.40;99.90;;;;;;5043034;28;20063;-82
2023/08/20 12:37:35;;;;;;;2.53;1.00;;;26.40;99.90;;;;;;5049033;28;20044;-81
2023/08/20 12:40:03;;;;;;;3.30;1.15;;;26.50;99.90;;;;;;5042861;28;20067;-82